Terminal Aerodrome Forecast
Issued by NWS Blacksburg, VA

Home | Current Version | Previous Version | Text Only | Print | Product List | Glossary On
Versions: 1 2 3 4 5 6 7 8 9 10 11 12 13 14 15 16 17 18 19 20 21 22 23 24 25 26 27 28 29 30 31 32 33
000
FTUS41 KRNK 271733
TAFROA
TAF
KROA 271733Z 2718/2818 29011G16KT P6SM BKN035 OVC045
     FM280100 30012G19KT P6SM SCT035
     FM280600 30009KT P6SM SCT030
     FM281200 30006KT P6SM SKC=

USA.gov is the U.S. government's official web portal to all federal, state and local government web resources and services.